createdAt,value
2022-09-20T00:01:40.461Z,12.54
2022-09-20T00:04:08.962Z,12.56
2022-09-20T00:06:36.185Z,12.55
2022-09-20T00:09:04.318Z,12.52
2022-09-20T00:11:34.264Z,12.58
2022-09-20T00:14:04.098Z,12.56
2022-09-20T00:16:34.604Z,12.59
2022-09-20T00:19:05.896Z,12.59
2022-09-20T00:21:37.783Z,12.61
2022-09-20T00:24:06.560Z,12.59
2022-09-20T00:26:34.172Z,12.58
2022-09-20T00:29:02.012Z,12.55
2022-09-20T00:31:29.471Z,12.57
2022-09-20T00:34:16.543Z,12.53
2022-09-20T00:36:44.652Z,12.56
2022-09-20T00:39:14.203Z,12.60
2022-09-20T00:41:41.358Z,12.60
2022-09-20T00:44:44.036Z,12.60
2022-09-20T00:47:17.834Z,12.56
2022-09-20T00:49:45.496Z,12.53
2022-09-20T00:52:12.848Z,12.48
2022-09-20T00:54:40.088Z,12.47
2022-09-20T00:57:07.267Z,12.45
2022-09-20T00:59:39.564Z,12.45
2022-09-20T01:02:09.464Z,12.49
2022-09-20T01:04:40.705Z,12.45
2022-09-20T01:07:09.716Z,12.50
2022-09-20T01:09:37.179Z,12.52
2022-09-20T01:12:09.769Z,12.46
2022-09-20T01:14:36.754Z,12.41
2022-09-20T01:17:06.454Z,12.47
2022-09-20T01:20:00.826Z,12.50
2022-09-20T01:23:03.166Z,12.46
2022-09-20T01:25:54.747Z,12.45
2022-09-20T01:28:22.174Z,12.41
2022-09-20T01:31:15.940Z,12.38
2022-09-20T01:34:13.985Z,12.31
2022-09-20T01:36:45.506Z,12.33
2022-09-20T01:39:23.824Z,12.23
2022-09-20T01:42:02.511Z,12.15
2022-09-20T01:44:41.208Z,12.08
2022-09-20T01:47:20.468Z,12.01
2022-09-20T01:49:50.412Z,11.92
2022-09-20T01:52:29.541Z,11.81
2022-09-20T01:55:15.508Z,11.77
2022-09-20T01:58:17.015Z,11.67
2022-09-20T02:01:24.359Z,11.58
2022-09-20T02:04:03.199Z,11.48
2022-09-20T02:07:01.145Z,11.43
2022-09-20T02:09:59.298Z,11.42
2022-09-20T02:12:40.759Z,11.39
2022-09-20T02:15:14.300Z,11.29
2022-09-20T02:17:53.928Z,11.28
2022-09-20T02:20:39.060Z,11.19
2022-09-20T02:23:26.009Z,11.15
2022-09-20T02:26:14.616Z,11.12
2022-09-20T02:29:17.105Z,11.10
2022-09-20T02:31:56.063Z,11.04
2022-09-20T02:35:00.636Z,10.95
2022-09-20T02:37:58.350Z,10.93
2022-09-20T02:40:43.900Z,10.89
2022-09-20T02:43:42.014Z,10.85
2022-09-20T02:46:35.316Z,10.86
2022-09-20T02:49:28.574Z,10.85
2022-09-20T02:52:02.593Z,10.72
2022-09-20T02:55:06.130Z,10.67
2022-09-20T02:58:06.681Z,10.61
2022-09-20T03:00:45.011Z,10.51
2022-09-20T03:03:20.163Z,10.51
2022-09-20T03:05:53.291Z,10.46
2022-09-20T03:08:43.311Z,10.40
2022-09-20T03:11:25.574Z,10.42
2022-09-20T03:14:19.250Z,10.44
2022-09-20T03:17:16.565Z,10.31
2022-09-20T03:19:55.155Z,10.26
2022-09-20T03:22:50.244Z,10.18
2022-09-20T03:25:50.372Z,10.12
2022-09-20T03:28:20.322Z,10.04
2022-09-20T03:31:08.862Z,9.97
2022-09-20T03:34:15.444Z,9.93
2022-09-20T03:37:11.514Z,9.87
2022-09-20T03:39:46.515Z,9.76
2022-09-20T03:42:23.137Z,9.80
2022-09-20T03:45:17.657Z,9.77
2022-09-20T03:48:13.321Z,9.69
2022-09-20T03:50:58.942Z,9.73
2022-09-20T03:53:44.562Z,9.73
2022-09-20T03:56:19.233Z,9.71
2022-09-20T03:58:46.281Z,9.67
2022-09-20T04:01:35.732Z,9.58
2022-09-20T04:04:16.430Z,9.58
2022-09-20T04:06:59.584Z,9.60
2022-09-20T04:09:38.647Z,9.57
2022-09-20T04:12:19.515Z,9.60
2022-09-20T04:15:34.082Z,9.60
2022-09-20T04:18:40.709Z,9.63
2022-09-20T04:21:31.375Z,9.67
2022-09-20T04:24:36.987Z,9.64
2022-09-20T04:27:15.747Z,9.60
2022-09-20T04:30:11.943Z,9.56
2022-09-20T04:33:08.034Z,9.54
2022-09-20T04:36:30.457Z,9.49
2022-09-20T04:39:09.002Z,9.48
2022-09-20T04:42:08.739Z,9.48
2022-09-20T04:45:08.982Z,9.54
2022-09-20T04:47:54.775Z,9.55
2022-09-20T04:50:46.113Z,9.55
2022-09-20T04:53:36.818Z,9.55
2022-09-20T04:56:22.289Z,9.57
2022-09-20T04:59:05.201Z,9.58
2022-09-20T05:01:38.156Z,9.62
2022-09-20T05:04:31.365Z,9.66
2022-09-20T05:07:38.791Z,9.75
2022-09-20T05:10:08.799Z,9.83
2022-09-20T05:12:47.825Z,9.92
2022-09-20T05:15:38.434Z,10.08
2022-09-20T05:18:10.321Z,10.13
2022-09-20T05:20:51.261Z,10.25
2022-09-20T05:23:51.997Z,10.36
2022-09-20T05:26:25.071Z,10.52
2022-09-20T05:29:25.707Z,10.62
2022-09-20T05:32:03.081Z,10.77
2022-09-20T05:34:51.505Z,10.86
2022-09-20T05:37:46.826Z,10.92
2022-09-20T05:40:26.052Z,11.08
2022-09-20T05:43:11.782Z,11.29
2022-09-20T05:45:44.550Z,11.47
2022-09-20T05:48:26.748Z,11.83
2022-09-20T05:51:04.067Z,12.24
2022-09-20T05:54:18.788Z,12.51
2022-09-20T05:56:46.353Z,12.63
2022-09-20T05:59:45.536Z,12.78
2022-09-20T06:02:38.465Z,12.77
2022-09-20T06:05:29.022Z,12.59
2022-09-20T06:08:04.928Z,12.42
2022-09-20T06:11:05.872Z,12.36
2022-09-20T06:14:03.842Z,12.23
2022-09-20T06:17:03.443Z,12.20
2022-09-20T06:20:05.367Z,12.52
2022-09-20T06:22:41.781Z,12.68
2022-09-20T06:25:08.760Z,12.85
2022-09-20T06:27:49.550Z,12.97
2022-09-20T06:30:21.348Z,13.35
2022-09-20T06:33:14.132Z,13.59
2022-09-20T06:35:44.202Z,13.69
2022-09-20T06:38:38.857Z,13.49
2022-09-20T06:41:24.987Z,13.56
2022-09-20T06:43:51.985Z,13.71
2022-09-20T06:46:19.687Z,13.88
2022-09-20T06:48:47.454Z,14.03
2022-09-20T06:51:14.791Z,14.47
2022-09-20T06:53:42.472Z,14.91
2022-09-20T06:56:15.137Z,15.45
2022-09-20T06:58:42.405Z,15.73
2022-09-20T07:01:09.621Z,15.98
2022-09-20T07:03:37.366Z,16.26
2022-09-20T07:06:04.734Z,16.48
2022-09-20T07:08:31.891Z,16.59
2022-09-20T07:11:06.789Z,16.68
2022-09-20T07:13:34.603Z,17.01
2022-09-20T07:16:04.002Z,17.01
2022-09-20T07:18:32.316Z,17.06
2022-09-20T07:21:01.503Z,16.96
2022-09-20T07:23:30.473Z,16.86
2022-09-20T07:26:01.295Z,17.00
2022-09-20T07:28:30.435Z,17.15
2022-09-20T07:30:57.642Z,17.01
2022-09-20T07:33:25.410Z,17.04
2022-09-20T07:35:54.652Z,17.07
2022-09-20T07:38:23.204Z,16.67
2022-09-20T07:40:57.876Z,16.49
2022-09-20T07:43:25.853Z,16.63
2022-09-20T07:45:58.175Z,16.85
2022-09-20T07:48:27.349Z,16.54
2022-09-20T07:51:05.659Z,16.14
2022-09-20T07:53:35.433Z,16.04
2022-09-20T07:56:14.467Z,16.25
2022-09-20T07:58:42.497Z,16.37
2022-09-20T08:01:12.785Z,16.19
2022-09-20T08:03:40.667Z,16.11
2022-09-20T08:06:08.847Z,16.09
2022-09-20T08:08:37.768Z,16.13
2022-09-20T08:11:06.698Z,16.14
2022-09-20T08:16:40.388Z,16.57
2022-09-20T08:19:07.746Z,16.75
2022-09-20T08:21:38.203Z,16.90
2022-09-20T08:24:05.176Z,16.87
2022-09-20T08:26:32.697Z,16.77
2022-09-20T08:29:01.521Z,17.00
2022-09-20T08:31:34.612Z,16.77
2022-09-20T08:34:05.505Z,16.46
2022-09-20T08:36:36.736Z,16.24
2022-09-20T08:42:03.212Z,16.87
2022-09-20T08:45:00.536Z,17.02
2022-09-20T08:47:33.470Z,16.84
2022-09-20T08:50:09.220Z,16.85
2022-09-20T08:52:40.151Z,16.78
2022-09-20T08:55:22.288Z,16.96
2022-09-20T08:57:57.921Z,17.15
2022-09-20T09:00:32.421Z,16.90
2022-09-20T09:03:04.625Z,16.81
2022-09-20T09:05:37.815Z,16.58
2022-09-20T09:08:37.549Z,16.57
2022-09-20T09:11:10.249Z,16.64
2022-09-20T09:13:40.140Z,16.71
2022-09-20T09:16:13.431Z,16.53
2022-09-20T09:18:42.526Z,16.33
2022-09-20T09:21:20.566Z,16.24
2022-09-20T09:24:14.059Z,16.08
2022-09-20T09:26:43.649Z,15.96
2022-09-20T09:29:20.274Z,15.89
2022-09-20T09:31:56.865Z,15.84
2022-09-20T09:34:35.879Z,16.08
2022-09-20T09:37:03.222Z,16.38
2022-09-20T09:39:38.696Z,16.99
2022-09-20T09:42:36.299Z,17.46
2022-09-20T09:45:14.348Z,17.63
2022-09-20T09:47:41.492Z,17.34
2022-09-20T09:50:23.617Z,17.00
2022-09-20T09:53:03.041Z,16.83
2022-09-20T09:55:59.470Z,16.84
2022-09-20T09:58:46.379Z,16.58
2022-09-20T10:01:32.562Z,16.93
2022-09-20T10:04:00.167Z,17.17
2022-09-20T10:06:59.184Z,17.72
2022-09-20T10:09:50.239Z,17.90
2022-09-20T10:12:32.844Z,17.63
2022-09-20T10:15:17.572Z,17.53
2022-09-20T10:17:53.961Z,17.43
2022-09-20T10:20:35.734Z,17.21
2022-09-20T10:23:58.560Z,17.25
2022-09-20T10:26:24.963Z,17.30
2022-09-20T10:29:09.115Z,17.49
2022-09-20T10:32:15.565Z,17.86
2022-09-20T10:34:43.050Z,17.63
2022-09-20T10:37:46.028Z,17.48
2022-09-20T10:40:15.663Z,17.67
2022-09-20T10:43:08.005Z,17.72
2022-09-20T10:46:27.996Z,17.59
2022-09-20T10:49:17.004Z,17.52
2022-09-20T10:52:05.816Z,17.51
2022-09-20T10:55:26.430Z,17.16
2022-09-20T10:58:11.085Z,17.06
2022-09-20T11:00:38.036Z,17.17
2022-09-20T11:03:26.847Z,17.29
2022-09-20T11:06:12.675Z,17.40
2022-09-20T11:08:42.928Z,17.43
2022-09-20T11:11:17.311Z,17.30
2022-09-20T11:14:02.646Z,17.22
2022-09-20T11:16:48.322Z,17.26
2022-09-20T11:19:35.198Z,17.47
2022-09-20T11:22:40.618Z,17.92
2022-09-20T11:25:23.992Z,18.26
2022-09-20T11:28:14.661Z,18.48
2022-09-20T11:36:44.312Z,18.37
2022-09-20T11:39:25.292Z,18.50
2022-09-20T11:41:56.402Z,18.55
2022-09-20T11:44:48.769Z,18.60
2022-09-20T11:48:00.196Z,18.75
2022-09-20T11:51:00.309Z,18.76
2022-09-20T11:54:02.108Z,18.39
2022-09-20T11:56:37.282Z,18.31
2022-09-20T11:59:34.590Z,18.24
2022-09-20T12:02:05.910Z,18.20
2022-09-20T12:04:41.409Z,18.36
2022-09-20T12:07:26.867Z,18.73
2022-09-20T12:10:10.607Z,18.83
2022-09-20T12:12:52.313Z,18.65
2022-09-20T12:15:24.959Z,18.42
2022-09-20T12:17:55.978Z,18.32
2022-09-20T12:20:38.818Z,18.15
2022-09-20T12:23:43.503Z,18.18
2022-09-20T12:26:16.676Z,18.08
2022-09-20T12:28:53.677Z,17.86
2022-09-20T12:31:29.385Z,17.86
2022-09-20T12:34:12.032Z,17.77
2022-09-20T12:36:50.822Z,17.60
2022-09-20T12:39:30.363Z,17.42
2022-09-20T12:41:59.158Z,17.28
2022-09-20T12:45:00.291Z,17.27
2022-09-20T12:47:40.688Z,17.53
2022-09-20T12:50:35.623Z,17.60
2022-09-20T12:53:07.890Z,17.68
2022-09-20T12:55:49.680Z,17.67
2022-09-20T12:58:23.282Z,17.64
2022-09-20T13:00:59.463Z,17.72
2022-09-20T13:03:37.234Z,17.82
2022-09-20T13:06:29.077Z,17.91
2022-09-20T13:09:10.138Z,17.88
2022-09-20T13:11:55.316Z,17.72
2022-09-20T13:14:33.745Z,17.74
2022-09-20T13:17:20.684Z,17.86
2022-09-20T13:19:51.041Z,17.80
2022-09-20T13:22:42.734Z,17.68
2022-09-20T13:25:23.015Z,17.63
2022-09-20T13:28:21.237Z,17.50
2022-09-20T13:30:52.015Z,17.40
2022-09-20T13:33:25.398Z,17.43
2022-09-20T13:35:59.605Z,17.52
2022-09-20T13:38:32.932Z,17.60
2022-09-20T13:41:10.039Z,17.53
2022-09-20T13:43:50.214Z,17.62
2022-09-20T13:46:24.735Z,17.72
2022-09-20T13:49:21.464Z,17.65
2022-09-20T13:51:50.053Z,17.46
2022-09-20T13:54:31.451Z,17.34
2022-09-20T13:57:05.729Z,17.30
2022-09-20T13:59:46.023Z,17.19
2022-09-20T14:02:36.034Z,17.14
2022-09-20T14:05:06.618Z,17.09
2022-09-20T14:08:07.427Z,17.24
2022-09-20T14:10:45.198Z,17.51
2022-09-20T14:13:21.912Z,17.56
2022-09-20T14:19:30.846Z,17.20
2022-09-20T14:22:18.369Z,17.05
2022-09-20T14:25:30.005Z,16.95
2022-09-20T14:28:30.501Z,16.98
2022-09-20T14:31:08.693Z,17.11
2022-09-20T14:38:02.334Z,17.10
2022-09-20T14:41:40.676Z,16.89
2022-09-20T14:45:47.378Z,16.70
2022-09-20T15:07:19.552Z,15.99
2022-09-20T15:08:08.077Z,15.82
2022-09-20T15:10:40.236Z,15.82
2022-09-20T15:16:15.772Z,15.65
2022-09-20T15:18:44.889Z,15.67
2022-09-20T15:24:59.059Z,15.60
2022-09-20T15:27:33.237Z,15.55
2022-09-20T15:30:27.605Z,15.49
2022-09-20T15:33:08.777Z,15.49
2022-09-20T15:35:57.186Z,15.44
2022-09-20T15:38:37.014Z,15.39
2022-09-20T15:41:15.509Z,15.30
2022-09-20T15:43:50.703Z,15.28
2022-09-20T15:46:56.143Z,15.18
2022-09-20T15:49:30.972Z,15.07
2022-09-20T15:52:11.950Z,14.98
2022-09-20T15:54:53.115Z,14.97
2022-09-20T15:57:35.010Z,14.88
2022-09-20T16:00:24.991Z,14.78
2022-09-20T16:02:52.758Z,14.74
2022-09-20T16:05:51.356Z,14.71
2022-09-20T16:12:02.786Z,14.52
2022-09-20T16:14:33.749Z,14.41
2022-09-20T16:17:02.446Z,14.31
2022-09-20T16:19:35.445Z,14.21
2022-09-20T16:22:09.297Z,14.07
2022-09-20T16:24:40.983Z,13.97
2022-09-20T16:27:10.458Z,13.86
2022-09-20T16:29:41.069Z,13.78
2022-09-20T16:32:11.814Z,13.68
2022-09-20T16:34:42.919Z,13.61
2022-09-20T16:37:31.612Z,13.50
2022-09-20T16:40:03.008Z,13.44
2022-09-20T16:43:11.757Z,13.40
2022-09-20T16:48:43.046Z,13.09
2022-09-20T16:51:38.723Z,13.00
2022-09-20T16:54:14.942Z,13.00
2022-09-20T16:59:38.678Z,12.66
2022-09-20T17:02:06.869Z,12.59
2022-09-20T17:04:35.462Z,12.46
2022-09-20T17:07:06.922Z,12.35
2022-09-20T17:09:41.745Z,12.19
2022-09-20T17:12:10.669Z,12.13
2022-09-20T17:14:45.045Z,12.03
2022-09-20T17:20:14.066Z,11.96
2022-09-20T17:23:25.447Z,11.90
2022-09-20T17:26:09.332Z,11.77
2022-09-20T17:28:44.546Z,11.65
2022-09-20T17:31:18.194Z,11.62
2022-09-20T17:33:49.674Z,11.34
2022-09-20T17:37:15.220Z,11.05
2022-09-20T17:39:40.077Z,10.87
2022-09-20T17:42:08.558Z,10.82
2022-09-20T17:44:38.365Z,10.75
2022-09-20T17:47:06.910Z,10.72
2022-09-20T17:49:46.855Z,10.71
2022-09-20T17:52:15.168Z,10.73
2022-09-20T17:54:43.546Z,10.71
2022-09-20T17:57:14.361Z,10.68
2022-09-20T17:59:45.854Z,10.67
2022-09-20T18:02:29.099Z,10.70
2022-09-20T18:04:57.259Z,10.65
2022-09-20T18:07:25.280Z,10.63
2022-09-20T18:13:24.842Z,10.58
2022-09-20T18:16:20.912Z,10.55
2022-09-20T18:18:50.654Z,10.47
2022-09-20T18:21:20.830Z,10.42
2022-09-20T18:24:05.472Z,10.44
2022-09-20T18:26:34.361Z,10.35
2022-09-20T18:29:20.516Z,10.27
2022-09-20T18:32:07.989Z,10.27
2022-09-20T18:37:28.415Z,10.21
2022-09-20T18:38:55.666Z,10.28
2022-09-20T18:39:56.316Z,10.03
2022-09-20T18:42:27.390Z,9.92
2022-09-20T18:45:21.652Z,9.87
2022-09-20T18:51:14.062Z,9.90
2022-09-20T18:53:45.311Z,9.87
2022-09-20T18:56:35.039Z,9.87
2022-09-20T18:59:09.004Z,9.85
2022-09-20T19:01:43.074Z,9.83
2022-09-20T19:04:56.479Z,9.79
2022-09-20T19:07:56.220Z,9.68
2022-09-20T19:11:03.907Z,9.64
2022-09-20T19:14:22.712Z,9.49
2022-09-20T19:17:34.107Z,9.30
2022-09-20T19:20:26.287Z,9.28
2022-09-20T19:23:07.304Z,9.29
2022-09-20T19:25:49.734Z,9.26
2022-09-20T19:28:24.546Z,9.31
2022-09-20T19:30:53.384Z,9.31
2022-09-20T19:33:24.005Z,9.30
2022-09-20T19:36:09.392Z,9.33
2022-09-20T19:39:07.297Z,9.23
2022-09-20T19:41:51.749Z,9.24
2022-09-20T19:44:38.920Z,9.19
2022-09-20T19:48:01.875Z,9.04
2022-09-20T19:50:55.376Z,8.96
2022-09-20T19:53:28.519Z,8.90
2022-09-20T19:56:13.690Z,8.91
2022-09-20T19:58:46.105Z,8.87
2022-09-20T20:01:14.385Z,8.85
2022-09-20T20:03:52.127Z,8.81
2022-09-20T20:06:28.269Z,8.86
2022-09-20T20:09:14.414Z,8.75
2022-09-20T20:12:00.832Z,8.71
2022-09-20T20:14:28.140Z,8.74
2022-09-20T20:17:17.344Z,8.71
2022-09-20T20:20:19.022Z,8.62
2022-09-20T20:23:02.855Z,8.62
2022-09-20T20:26:29.524Z,8.54
2022-09-20T20:29:10.648Z,8.56
2022-09-20T20:31:38.748Z,8.53
2022-09-20T20:34:07.102Z,8.57
2022-09-20T20:36:52.339Z,8.51
2022-09-20T20:39:23.834Z,8.51
2022-09-20T20:41:53.282Z,8.50
2022-09-20T20:44:22.896Z,8.44
2022-09-20T20:47:18.404Z,8.35
2022-09-20T20:49:52.553Z,8.31
2022-09-20T20:52:52.248Z,8.29
2022-09-20T20:56:02.529Z,8.26
2022-09-20T20:58:34.434Z,8.24
2022-09-20T21:01:21.150Z,8.26
2022-09-20T21:03:54.326Z,8.27
2022-09-20T21:06:26.074Z,8.25
2022-09-20T21:08:54.516Z,8.17
2022-09-20T21:11:40.089Z,8.13
2022-09-20T21:14:13.668Z,8.09
2022-09-20T21:16:44.480Z,8.08
2022-09-20T21:19:16.515Z,7.95
2022-09-20T21:21:49.063Z,7.95
2022-09-20T21:24:18.428Z,7.96
2022-09-20T21:26:49.709Z,8.02
2022-09-20T21:29:37.976Z,7.96
2022-09-20T21:32:09.263Z,7.90
2022-09-20T21:34:37.925Z,7.82
2022-09-20T21:37:26.417Z,7.80
2022-09-20T21:39:55.351Z,7.73
2022-09-20T21:42:23.496Z,7.72
2022-09-20T21:44:52.665Z,7.77
2022-09-20T21:47:35.508Z,7.55
2022-09-20T21:50:03.238Z,7.56
2022-09-20T21:52:30.973Z,7.45
2022-09-20T21:54:58.529Z,7.49
2022-09-20T21:57:25.979Z,7.48
2022-09-20T21:59:53.603Z,7.46
2022-09-20T22:02:23.810Z,7.47
2022-09-20T22:04:51.602Z,7.48
2022-09-20T22:07:19.486Z,7.54
2022-09-20T22:09:47.413Z,7.56
2022-09-20T22:12:15.024Z,7.48
2022-09-20T22:14:42.655Z,7.47
2022-09-20T22:17:10.157Z,7.48
2022-09-20T22:19:41.319Z,7.40
2022-09-20T22:22:09.452Z,7.35
2022-09-20T22:24:36.836Z,7.38
2022-09-20T22:27:04.424Z,7.39
2022-09-20T22:29:31.917Z,7.42
2022-09-20T22:31:59.153Z,7.46
2022-09-20T22:34:26.470Z,7.49
2022-09-20T22:36:54.377Z,7.46
2022-09-20T22:39:21.646Z,7.48
2022-09-20T22:41:51.493Z,7.48
2022-09-20T22:44:18.694Z,7.41
2022-09-20T22:46:46.033Z,7.39
2022-09-20T22:49:13.359Z,7.38
2022-09-20T22:51:41.093Z,7.28
2022-09-20T22:54:11.215Z,7.30
2022-09-20T22:56:39.735Z,7.27
2022-09-20T22:59:09.674Z,7.18
2022-09-20T23:01:43.131Z,7.12
2022-09-20T23:04:19.502Z,7.12
2022-09-20T23:06:49.611Z,7.09
2022-09-20T23:09:18.856Z,7.08
2022-09-20T23:11:47.147Z,7.08
2022-09-20T23:14:20.269Z,7.02
2022-09-20T23:16:48.729Z,6.89
2022-09-20T23:19:16.511Z,6.87
2022-09-20T23:21:44.628Z,6.85
2022-09-20T23:24:14.829Z,6.88
2022-09-20T23:26:43.976Z,6.93
2022-09-20T23:29:16.239Z,7.01
2022-09-20T23:31:46.874Z,6.99
2022-09-20T23:34:16.123Z,6.90
2022-09-20T23:36:44.459Z,6.95
2022-09-20T23:39:12.348Z,6.93
2022-09-20T23:41:41.854Z,6.94
2022-09-20T23:44:11.882Z,6.85
2022-09-20T23:46:39.712Z,6.76
2022-09-20T23:49:09.528Z,6.80
2022-09-20T23:51:37.591Z,6.84
2022-09-20T23:54:05.243Z,6.83
2022-09-20T23:56:32.587Z,6.81
2022-09-20T23:58:59.971Z,6.86
